createdAt,value
2022-10-05T00:02:23.428Z,99372.50
2022-10-05T00:04:54.095Z,99381.91
2022-10-05T00:07:22.440Z,99373.34
2022-10-05T00:09:56.360Z,99373.34
2022-10-05T00:12:24.592Z,99378.47
2022-10-05T00:14:59.212Z,99385.31
2022-10-05T00:17:28.456Z,99392.16
2022-10-05T00:19:55.438Z,99391.28
2022-10-05T00:22:24.791Z,99391.22
2022-10-05T00:24:57.943Z,99398.03
2022-10-05T00:27:25.665Z,99398.91
2022-10-05T00:29:57.572Z,99386.94
2022-10-05T00:32:24.207Z,99390.34
2022-10-05T00:34:50.761Z,99392.97
2022-10-05T00:37:17.335Z,99386.09
2022-10-05T00:39:44.411Z,99396.34
2022-10-05T00:42:29.057Z,99398.13
2022-10-05T00:45:09.656Z,99398.13
2022-10-05T00:47:45.348Z,99393.88
2022-10-05T00:50:36.815Z,99402.44
2022-10-05T00:53:21.613Z,99397.31
2022-10-05T00:56:19.635Z,99399.88
2022-10-05T00:58:58.273Z,99396.44
2022-10-05T01:01:24.772Z,99395.56
2022-10-05T01:04:13.518Z,99392.06
2022-10-05T01:07:22.447Z,99386.09
2022-10-05T01:09:58.208Z,99380.13
2022-10-05T01:12:53.855Z,99378.47
2022-10-05T01:15:23.551Z,99374.19
2022-10-05T01:18:19.456Z,99374.19
2022-10-05T01:20:53.546Z,99376.75
2022-10-05T01:23:41.937Z,99386.97
2022-10-05T01:26:14.500Z,99385.22
2022-10-05T01:28:52.434Z,99380.00
2022-10-05T01:31:26.337Z,99371.38
2022-10-05T01:34:25.376Z,99385.06
2022-10-05T01:37:16.328Z,99378.19
2022-10-05T01:40:12.588Z,99368.81
2022-10-05T01:43:00.395Z,99367.13
2022-10-05T01:45:57.957Z,99363.66
2022-10-05T01:48:32.429Z,99348.28
2022-10-05T01:51:37.874Z,99358.63
2022-10-05T01:54:10.641Z,99364.56
2022-10-05T01:56:53.166Z,99362.84
2022-10-05T01:59:58.032Z,99359.44
2022-10-05T02:02:26.356Z,99367.13
2022-10-05T02:05:34.999Z,99369.69
2022-10-05T02:08:10.684Z,99368.00
2022-10-05T02:10:42.265Z,99363.69
2022-10-05T02:13:14.427Z,99367.13
2022-10-05T02:15:45.761Z,99369.59
2022-10-05T02:18:23.486Z,99370.38
2022-10-05T02:20:52.983Z,99373.03
2022-10-05T02:23:25.382Z,99369.63
2022-10-05T02:25:54.556Z,99379.03
2022-10-05T02:28:33.373Z,99382.50
2022-10-05T02:31:14.082Z,99382.56
2022-10-05T02:33:41.076Z,99380.03
2022-10-05T02:36:16.241Z,99373.19
2022-10-05T02:39:07.578Z,99368.06
2022-10-05T02:41:46.025Z,99355.22
2022-10-05T02:44:40.290Z,99360.34
2022-10-05T02:47:16.053Z,99362.09
2022-10-05T02:49:47.767Z,99365.41
2022-10-05T02:52:24.269Z,99356.88
2022-10-05T02:54:53.462Z,99350.03
2022-10-05T02:57:23.070Z,99337.22
2022-10-05T03:00:11.489Z,99332.13
2022-10-05T03:03:08.851Z,99323.50
2022-10-05T03:05:45.899Z,99323.50
2022-10-05T03:08:24.993Z,99321.81
2022-10-05T03:11:19.858Z,99329.44
2022-10-05T03:14:37.516Z,99332.88
2022-10-05T03:17:13.655Z,99336.25
2022-10-05T03:20:11.136Z,99321.69
2022-10-05T03:22:48.245Z,99316.56
2022-10-05T03:25:22.333Z,99294.34
2022-10-05T03:28:03.090Z,99289.22
2022-10-05T03:30:47.958Z,99285.00
2022-10-05T03:33:25.986Z,99283.28
2022-10-05T03:36:17.542Z,99279.03
2022-10-05T03:38:50.175Z,99288.47
2022-10-05T03:41:41.396Z,99293.53
2022-10-05T03:44:26.391Z,99291.75
2022-10-05T03:47:20.639Z,99287.44
2022-10-05T03:49:57.973Z,99288.25
2022-10-05T03:52:34.217Z,99293.41
2022-10-05T03:55:18.522Z,99292.56
2022-10-05T03:57:48.872Z,99297.63
2022-10-05T04:00:23.258Z,99295.88
2022-10-05T04:03:08.085Z,99308.66
2022-10-05T04:05:50.556Z,99314.69
2022-10-05T04:08:29.361Z,99320.63
2022-10-05T04:10:59.570Z,99328.28
2022-10-05T04:13:48.381Z,99336.88
2022-10-05T04:16:50.491Z,99346.22
2022-10-05T04:19:34.192Z,99343.56
2022-10-05T04:22:13.334Z,99354.63
2022-10-05T04:24:47.316Z,99360.56
2022-10-05T04:27:27.473Z,99364.00
2022-10-05T04:30:08.138Z,99363.25
2022-10-05T04:32:42.932Z,99359.06
2022-10-05T04:35:21.588Z,99364.25
2022-10-05T04:38:16.633Z,99367.63
2022-10-05T04:41:06.424Z,99377.06
2022-10-05T04:43:51.347Z,99381.34
2022-10-05T04:46:42.962Z,99383.91
2022-10-05T04:49:29.678Z,99385.53
2022-10-05T04:52:05.653Z,99376.19
2022-10-05T04:54:53.821Z,99377.91
2022-10-05T04:57:43.382Z,99385.66
2022-10-05T05:00:10.094Z,99390.81
2022-10-05T05:03:05.467Z,99408.75
2022-10-05T05:06:16.275Z,99407.06
2022-10-05T05:09:01.714Z,99398.50
2022-10-05T05:11:40.196Z,99412.13
2022-10-05T05:14:32.318Z,99415.56
2022-10-05T05:17:22.593Z,99415.63
2022-10-05T05:20:10.523Z,99408.00
2022-10-05T05:23:02.704Z,99415.78
2022-10-05T05:25:50.846Z,99408.94
2022-10-05T05:28:29.620Z,99408.94
2022-10-05T05:31:25.660Z,99408.81
2022-10-05T05:34:22.721Z,99409.66
2022-10-05T05:36:52.217Z,99422.56
2022-10-05T05:39:34.885Z,99422.69
2022-10-05T05:42:22.706Z,99426.22
2022-10-05T05:44:56.158Z,99423.66
2022-10-05T05:47:35.398Z,99416.00
2022-10-05T05:50:33.934Z,99420.38
2022-10-05T05:53:12.537Z,99404.94
2022-10-05T05:55:43.922Z,99405.84
2022-10-05T05:58:20.250Z,99407.56
2022-10-05T06:00:54.236Z,99403.31
2022-10-05T06:03:41.812Z,99414.44
2022-10-05T06:06:15.857Z,99407.59
2022-10-05T06:08:50.447Z,99415.28
2022-10-05T06:11:28.950Z,99415.25
2022-10-05T06:14:09.096Z,99412.66
2022-10-05T06:16:51.050Z,99420.44
2022-10-05T06:19:22.150Z,99416.22
2022-10-05T06:22:01.941Z,99400.78
2022-10-05T06:24:44.068Z,99403.38
2022-10-05T06:27:24.584Z,99407.63
2022-10-05T06:30:02.092Z,99417.06
2022-10-05T06:32:50.167Z,99412.75
2022-10-05T06:35:37.439Z,99410.97
2022-10-05T06:38:22.727Z,99418.69
2022-10-05T06:40:49.128Z,99411.78
2022-10-05T06:43:15.604Z,99412.63
2022-10-05T06:45:56.405Z,99416.94
2022-10-05T06:48:31.293Z,99417.03
2022-10-05T06:51:17.081Z,99424.78
2022-10-05T06:53:52.105Z,99422.97
2022-10-05T06:56:41.774Z,99422.88
2022-10-05T06:59:18.154Z,99432.34
2022-10-05T07:02:05.446Z,99425.44
2022-10-05T07:04:45.265Z,99427.22
2022-10-05T07:07:32.696Z,99422.06
2022-10-05T07:10:25.695Z,99426.34
2022-10-05T07:13:11.712Z,99439.25
2022-10-05T07:15:47.355Z,99443.56
2022-10-05T07:18:23.231Z,99437.53
2022-10-05T07:21:11.466Z,99435.00
2022-10-05T07:23:56.716Z,99453.00
2022-10-05T07:26:43.442Z,99449.56
2022-10-05T07:29:53.916Z,99442.75
2022-10-05T07:32:34.106Z,99444.41
2022-10-05T07:35:55.338Z,99457.22
2022-10-05T07:38:31.057Z,99452.06
2022-10-05T07:41:06.444Z,99451.09
2022-10-05T07:44:07.738Z,99452.69
2022-10-05T07:46:47.281Z,99454.78
2022-10-05T07:49:16.882Z,99446.72
2022-10-05T07:51:51.136Z,99444.84
2022-10-05T07:54:29.728Z,99450.59
2022-10-05T07:57:13.928Z,99445.66
2022-10-05T07:59:58.282Z,99442.88
2022-10-05T08:02:35.069Z,99439.59
2022-10-05T08:05:13.352Z,99445.44
2022-10-05T08:07:40.860Z,99438.53
2022-10-05T08:10:16.652Z,99437.28
2022-10-05T08:13:05.301Z,99435.28
2022-10-05T08:15:42.820Z,99435.53
2022-10-05T08:18:21.611Z,99440.97
2022-10-05T08:20:52.575Z,99442.41
2022-10-05T08:23:23.754Z,99439.81
2022-10-05T08:25:53.280Z,99440.47
2022-10-05T08:28:36.900Z,99438.97
2022-10-05T08:31:13.883Z,99443.91
2022-10-05T08:34:19.067Z,99438.03
2022-10-05T08:37:03.996Z,99433.44
2022-10-05T08:39:39.019Z,99430.59
2022-10-05T08:42:44.480Z,99424.84
2022-10-05T08:45:26.076Z,99417.53
2022-10-05T08:48:08.261Z,99414.84
2022-10-05T08:51:32.990Z,99428.22
2022-10-05T08:54:37.408Z,99425.69
2022-10-05T08:57:09.859Z,99428.31
2022-10-05T09:00:04.285Z,99432.41
2022-10-05T09:02:43.059Z,99434.97
2022-10-05T09:05:35.943Z,99438.16
2022-10-05T09:08:14.648Z,99447.22
2022-10-05T09:11:05.155Z,99437.16
2022-10-05T09:13:58.021Z,99438.78
2022-10-05T09:16:54.366Z,99441.75
2022-10-05T09:19:58.364Z,99438.38
2022-10-05T09:22:43.542Z,99449.44
2022-10-05T09:25:22.574Z,99447.59
2022-10-05T09:27:57.298Z,99448.66
2022-10-05T09:30:52.018Z,99452.41
2022-10-05T09:33:46.294Z,99449.09
2022-10-05T09:36:12.778Z,99444.19
2022-10-05T09:38:39.332Z,99448.63
2022-10-05T09:41:33.484Z,99441.69
2022-10-05T09:44:18.947Z,99449.69
2022-10-05T09:47:08.670Z,99451.22
2022-10-05T09:50:06.842Z,99442.72
2022-10-05T09:52:54.910Z,99440.84
2022-10-05T09:55:25.646Z,99447.19
2022-10-05T09:58:24.884Z,99446.81
2022-10-05T10:01:09.152Z,99444.41
2022-10-05T10:03:51.773Z,99448.22
2022-10-05T10:06:21.369Z,99448.13
2022-10-05T10:09:18.778Z,99452.09
2022-10-05T10:11:57.394Z,99451.06
2022-10-05T10:15:06.827Z,99453.63
2022-10-05T10:17:51.769Z,99445.53
2022-10-05T10:20:31.082Z,99435.69
2022-10-05T10:23:28.513Z,99434.09
2022-10-05T10:26:11.883Z,99440.38
2022-10-05T10:29:12.529Z,99431.44
2022-10-05T10:32:13.417Z,99425.78
2022-10-05T10:35:21.813Z,99410.34
2022-10-05T10:38:27.762Z,99403.16
2022-10-05T10:41:03.391Z,99397.47
2022-10-05T10:43:49.472Z,99395.88
2022-10-05T10:46:32.561Z,99397.25
2022-10-05T10:49:20.306Z,99379.59
2022-10-05T10:52:04.369Z,99387.56
2022-10-05T10:54:48.858Z,99383.19
2022-10-05T10:57:53.113Z,99372.34
2022-10-05T11:00:24.541Z,99369.00
2022-10-05T11:02:57.145Z,99371.09
2022-10-05T11:05:38.845Z,99366.28
2022-10-05T11:08:35.934Z,99362.41
2022-10-05T11:11:19.694Z,99357.09
2022-10-05T11:14:14.472Z,99356.69
2022-10-05T11:17:02.725Z,99354.09
2022-10-05T11:20:02.594Z,99356.09
2022-10-05T11:22:51.705Z,99348.97
2022-10-05T11:25:55.453Z,99348.53
2022-10-05T11:29:00.092Z,99362.13
2022-10-05T11:31:52.086Z,99348.78
2022-10-05T11:34:58.516Z,99347.94
2022-10-05T11:37:57.463Z,99349.16
2022-10-05T11:41:05.169Z,99354.72
2022-10-05T11:43:57.807Z,99357.38
2022-10-05T11:46:43.580Z,99360.88
2022-10-05T11:49:33.757Z,99365.84
2022-10-05T11:52:16.926Z,99359.19
2022-10-05T11:55:12.368Z,99373.75
2022-10-05T11:57:53.871Z,99365.78
2022-10-05T12:00:23.508Z,99364.72
2022-10-05T12:02:53.312Z,99359.38
2022-10-05T12:05:27.842Z,99360.41
2022-10-05T12:08:14.904Z,99365.19
2022-10-05T12:10:47.712Z,99361.56
2022-10-05T12:13:20.445Z,99354.44
2022-10-05T12:15:54.678Z,99356.22
2022-10-05T12:18:30.423Z,99357.38
2022-10-05T12:21:09.620Z,99365.19
2022-10-05T12:23:42.814Z,99364.56
2022-10-05T12:26:20.793Z,99364.72
2022-10-05T12:28:52.137Z,99354.28
2022-10-05T12:31:37.191Z,99351.47
2022-10-05T12:34:07.666Z,99359.13
2022-10-05T12:37:04.675Z,99362.94
2022-10-05T12:39:58.277Z,99361.28
2022-10-05T12:42:26.124Z,99354.56
2022-10-05T12:45:11.580Z,99351.50
2022-10-05T12:47:41.474Z,99350.53
2022-10-05T12:50:28.289Z,99348.31
2022-10-05T12:53:13.537Z,99344.53
2022-10-05T12:55:55.497Z,99341.81
2022-10-05T12:58:52.965Z,99350.44
2022-10-05T13:01:31.540Z,99354.41
2022-10-05T13:04:06.618Z,99346.34
2022-10-05T13:06:46.538Z,99353.16
2022-10-05T13:09:54.136Z,99354.31
2022-10-05T13:12:36.071Z,99345.94
2022-10-05T13:15:24.434Z,99349.09
2022-10-05T13:18:29.414Z,99348.78
2022-10-05T13:20:58.990Z,99339.09
2022-10-05T13:23:57.426Z,99352.88
2022-10-05T13:26:33.549Z,99350.47
2022-10-05T13:29:16.730Z,99345.81
2022-10-05T13:31:51.000Z,99347.78
2022-10-05T13:34:38.309Z,99339.41
2022-10-05T13:37:21.392Z,99342.56
2022-10-05T13:39:58.475Z,99337.16
2022-10-05T13:42:37.851Z,99339.16
2022-10-05T13:45:14.044Z,99328.59
2022-10-05T13:48:13.684Z,99319.59
2022-10-05T13:51:07.117Z,99317.88
2022-10-05T13:53:45.231Z,99322.97
2022-10-05T13:56:11.715Z,99324.44
2022-10-05T13:58:44.421Z,99322.41
2022-10-05T14:01:51.464Z,99328.66
2022-10-05T14:04:23.061Z,99327.69
2022-10-05T14:06:49.644Z,99323.78
2022-10-05T14:09:22.248Z,99319.63
2022-10-05T14:12:12.676Z,99312.63
2022-10-05T14:14:46.118Z,99308.16
2022-10-05T14:17:32.986Z,99301.31
2022-10-05T14:20:03.830Z,99303.44
2022-10-05T14:22:41.626Z,99304.78
2022-10-05T14:25:08.173Z,99309.34
2022-10-05T14:27:48.774Z,99302.44
2022-10-05T14:30:15.323Z,99306.09
2022-10-05T14:33:05.997Z,99291.16
2022-10-05T14:35:51.210Z,99289.97
2022-10-05T14:38:50.331Z,99287.25
2022-10-05T14:41:21.407Z,99295.50
2022-10-05T14:44:14.185Z,99296.09
2022-10-05T14:46:53.562Z,99298.09
2022-10-05T14:49:27.246Z,99297.66
2022-10-05T14:51:55.324Z,99296.25
2022-10-05T14:54:30.350Z,99307.28
2022-10-05T14:57:34.187Z,99303.44
2022-10-05T15:00:12.392Z,99309.56
2022-10-05T15:03:00.541Z,99303.50
2022-10-05T15:05:58.838Z,99298.28
2022-10-05T15:08:36.106Z,99307.28
2022-10-05T15:11:08.997Z,99305.03
2022-10-05T15:13:44.619Z,99301.50
2022-10-05T15:16:22.903Z,99302.13
2022-10-05T15:19:08.306Z,99298.22
2022-10-05T15:21:46.785Z,99297.72
2022-10-05T15:24:21.568Z,99297.41
2022-10-05T15:26:53.591Z,99309.81
2022-10-05T15:29:29.593Z,99292.38
2022-10-05T15:32:15.070Z,99288.69
2022-10-05T15:34:59.165Z,99285.59
2022-10-05T15:37:44.923Z,99295.72
2022-10-05T15:40:30.547Z,99294.56
2022-10-05T15:43:03.426Z,99295.41
2022-10-05T15:45:37.707Z,99300.03
2022-10-05T15:48:07.133Z,99295.16
2022-10-05T15:50:58.113Z,99293.44
2022-10-05T15:53:43.853Z,99287.47
2022-10-05T15:56:22.201Z,99293.84
2022-10-05T15:59:12.127Z,99282.00
2022-10-05T16:01:51.748Z,99287.94
2022-10-05T16:04:39.784Z,99279.88
2022-10-05T16:07:35.004Z,99279.94
2022-10-05T16:10:21.701Z,99295.44
2022-10-05T16:13:09.741Z,99296.25
2022-10-05T16:15:42.745Z,99299.88
2022-10-05T16:18:37.324Z,99306.09
2022-10-05T16:21:22.323Z,99319.03
2022-10-05T16:23:52.267Z,99304.41
2022-10-05T16:26:43.647Z,99297.78
2022-10-05T16:29:21.430Z,99298.03
2022-10-05T16:32:10.215Z,99304.75
2022-10-05T16:34:51.145Z,99306.38
2022-10-05T16:37:20.641Z,99308.38
2022-10-05T16:39:54.350Z,99312.84
2022-10-05T16:42:38.960Z,99312.09
2022-10-05T16:45:14.576Z,99314.91
2022-10-05T16:48:03.394Z,99321.03
2022-10-05T16:50:55.166Z,99322.81
2022-10-05T16:53:32.846Z,99325.38
2022-10-05T16:56:25.228Z,99325.34
2022-10-05T16:59:06.685Z,99326.34
2022-10-05T17:02:02.140Z,99323.00
2022-10-05T17:04:57.105Z,99320.53
2022-10-05T17:07:35.136Z,99326.75
2022-10-05T17:10:03.228Z,99336.47
2022-10-05T17:12:40.190Z,99334.06
2022-10-05T17:15:29.243Z,99332.47
2022-10-05T17:18:16.693Z,99332.38
2022-10-05T17:21:08.688Z,99329.13
2022-10-05T17:24:02.660Z,99334.38
2022-10-05T17:26:54.827Z,99328.22
2022-10-05T17:29:52.369Z,99323.22
2022-10-05T17:32:19.114Z,99325.81
2022-10-05T17:35:00.756Z,99313.00
2022-10-05T17:37:27.221Z,99315.81
2022-10-05T17:39:56.143Z,99320.16
2022-10-05T17:42:32.929Z,99327.81
2022-10-05T17:45:20.521Z,99332.00
2022-10-05T17:48:01.249Z,99326.94
2022-10-05T17:51:02.109Z,99327.38
2022-10-05T17:53:53.382Z,99326.50
2022-10-05T17:56:21.880Z,99334.72
2022-10-05T17:58:54.613Z,99337.19
2022-10-05T18:01:40.476Z,99335.41
2022-10-05T18:04:12.923Z,99333.50
2022-10-05T18:06:52.748Z,99328.31
2022-10-05T18:09:30.952Z,99331.69
2022-10-05T18:12:28.083Z,99325.75
2022-10-05T18:15:06.984Z,99327.31
2022-10-05T18:17:54.876Z,99326.38
2022-10-05T18:20:24.396Z,99329.78
2022-10-05T18:22:54.984Z,99328.00
2022-10-05T18:25:38.430Z,99327.31
2022-10-05T18:28:07.973Z,99323.81
2022-10-05T18:30:59.260Z,99318.56
2022-10-05T18:33:35.310Z,99321.09
2022-10-05T18:36:27.852Z,99321.13
2022-10-05T18:39:18.550Z,99320.16
2022-10-05T18:42:25.553Z,99334.69
2022-10-05T18:45:12.171Z,99326.53
2022-10-05T18:47:55.185Z,99331.50
2022-10-05T18:50:48.902Z,99334.09
2022-10-05T18:53:15.399Z,99331.41
2022-10-05T18:55:55.528Z,99323.81
2022-10-05T18:58:41.752Z,99332.41
2022-10-05T19:01:08.567Z,99332.47
2022-10-05T19:03:47.238Z,99334.22
2022-10-05T19:06:25.030Z,99328.97
2022-10-05T19:09:15.725Z,99335.84
2022-10-05T19:11:55.239Z,99332.47
2022-10-05T19:15:01.515Z,99328.91
2022-10-05T19:18:09.459Z,99317.72
2022-10-05T19:20:47.050Z,99327.31
2022-10-05T19:23:38.774Z,99318.06
2022-10-05T19:26:22.876Z,99325.81
2022-10-05T19:28:56.198Z,99327.41
2022-10-05T19:31:29.308Z,99323.13
2022-10-05T19:34:40.985Z,99330.00
2022-10-05T19:37:10.285Z,99336.09
2022-10-05T19:40:24.388Z,99331.72
2022-10-05T19:43:28.541Z,99336.09
2022-10-05T19:46:21.810Z,99331.78
2022-10-05T19:48:52.377Z,99331.06
2022-10-05T19:51:29.541Z,99325.81
2022-10-05T19:54:13.739Z,99332.97
2022-10-05T19:56:52.897Z,99337.34
2022-10-05T19:59:24.579Z,99336.41
2022-10-05T20:01:53.777Z,99339.06
2022-10-05T20:04:48.480Z,99342.56
2022-10-05T20:07:21.584Z,99344.44
2022-10-05T20:09:58.140Z,99344.44
2022-10-05T20:12:51.286Z,99339.25
2022-10-05T20:15:40.249Z,99334.25
2022-10-05T20:18:50.803Z,99342.94
2022-10-05T20:21:48.637Z,99346.94
2022-10-05T20:24:29.996Z,99346.78
2022-10-05T20:27:16.607Z,99351.94
2022-10-05T20:29:44.768Z,99352.13
2022-10-05T20:32:18.022Z,99346.78
2022-10-05T20:34:46.815Z,99352.81
2022-10-05T20:37:15.939Z,99354.63
2022-10-05T20:39:43.595Z,99352.91
2022-10-05T20:42:10.885Z,99357.22
2022-10-05T20:44:38.060Z,99356.75
2022-10-05T20:47:08.763Z,99363.53
2022-10-05T20:49:37.207Z,99358.25
2022-10-05T20:52:05.192Z,99362.53
2022-10-05T20:54:32.135Z,99371.03
2022-10-05T20:56:58.818Z,99367.44
2022-10-05T20:59:25.871Z,99373.44
2022-10-05T21:01:52.500Z,99375.22
2022-10-05T21:04:22.109Z,99371.66
2022-10-05T21:06:49.264Z,99376.91
2022-10-05T21:09:19.328Z,99373.38
2022-10-05T21:11:47.599Z,99371.81
2022-10-05T21:14:14.505Z,99376.13
2022-10-05T21:16:41.396Z,99376.75
2022-10-05T21:19:09.892Z,99382.75
2022-10-05T21:21:36.864Z,99380.16
2022-10-05T21:24:04.090Z,99379.34
2022-10-05T21:26:31.149Z,99374.97
2022-10-05T21:28:58.487Z,99379.38
2022-10-05T21:31:26.268Z,99377.66
2022-10-05T21:33:53.463Z,99388.78
2022-10-05T21:36:23.884Z,99376.69
2022-10-05T21:38:53.543Z,99380.25
2022-10-05T21:41:21.292Z,99384.44
2022-10-05T21:43:48.554Z,99371.44
2022-10-05T21:46:20.244Z,99387.09
2022-10-05T21:48:48.168Z,99381.94
2022-10-05T21:51:16.958Z,99379.47
2022-10-05T21:53:52.929Z,99370.00
2022-10-05T21:56:22.364Z,99376.00
2022-10-05T21:58:52.256Z,99373.44
2022-10-05T22:01:22.488Z,99381.47
2022-10-05T22:03:49.656Z,99377.16
2022-10-05T22:06:16.277Z,99371.06
2022-10-05T22:08:42.878Z,99377.06
2022-10-05T22:11:12.221Z,99373.81
2022-10-05T22:13:48.049Z,99375.50
2022-10-05T22:16:15.905Z,99373.84
2022-10-05T22:18:43.297Z,99377.34
2022-10-05T22:21:12.241Z,99380.75
2022-10-05T22:23:43.872Z,99378.28
2022-10-05T22:26:15.030Z,99373.06
2022-10-05T22:28:42.655Z,99371.50
2022-10-05T22:31:11.619Z,99368.13
2022-10-05T22:33:39.075Z,99372.50
2022-10-05T22:36:07.269Z,99368.31
2022-10-05T22:38:34.346Z,99365.72
2022-10-05T22:41:00.876Z,99372.50
2022-10-05T22:43:27.630Z,99371.72
2022-10-05T22:45:54.610Z,99366.53
2022-10-05T22:48:21.301Z,99376.94
2022-10-05T22:50:48.010Z,99372.69
2022-10-05T22:53:14.738Z,99373.53
2022-10-05T22:55:41.332Z,99378.59
2022-10-05T22:58:07.941Z,99375.97
2022-10-05T23:00:56.301Z,99376.75
2022-10-05T23:03:21.151Z,99381.78
2022-10-05T23:05:47.709Z,99387.78
2022-10-05T23:08:14.285Z,99389.56
2022-10-05T23:10:40.817Z,99385.28
2022-10-05T23:13:07.431Z,99385.28
2022-10-05T23:15:34.509Z,99377.63
2022-10-05T23:18:01.115Z,99379.47
2022-10-05T23:20:27.646Z,99385.72
2022-10-05T23:22:54.205Z,99383.34
2022-10-05T23:25:22.245Z,99390.28
2022-10-05T23:27:48.948Z,99387.66
2022-10-05T23:30:15.811Z,99391.06
2022-10-05T23:32:44.433Z,99385.81
2022-10-05T23:35:13.007Z,99391.00
2022-10-05T23:37:41.701Z,99392.72
2022-10-05T23:40:11.780Z,99397.03
2022-10-05T23:42:42.052Z,99401.34
2022-10-05T23:45:10.653Z,99397.91
2022-10-05T23:47:38.170Z,99398.66
2022-10-05T23:50:07.089Z,99401.34
2022-10-05T23:52:34.831Z,99402.22
2022-10-05T23:55:02.391Z,99405.75
2022-10-05T23:57:29.003Z,99409.25
2022-10-05T23:59:56.408Z,99409.38
